sensor_id;sensor_type;location;lat;lon;timestamp;temperature;humidity
69546;SHT31;56766;52.260;20.746;2024-02-23T00:01:32;7.62;83.80
69546;SHT31;56766;52.260;20.746;2024-02-23T00:03:58;7.61;83.82
69546;SHT31;56766;52.260;20.746;2024-02-23T00:06:25;7.62;83.71
69546;SHT31;56766;52.260;20.746;2024-02-23T00:08:54;7.62;83.58
69546;SHT31;56766;52.260;20.746;2024-02-23T00:11:21;7.64;83.45
69546;SHT31;56766;52.260;20.746;2024-02-23T00:13:48;7.63;83.36
69546;SHT31;56766;52.260;20.746;2024-02-23T00:16:14;7.66;83.19
69546;SHT31;56766;52.260;20.746;2024-02-23T00:18:41;7.66;83.19
69546;SHT31;56766;52.260;20.746;2024-02-23T00:21:08;7.67;83.05
69546;SHT31;56766;52.260;20.746;2024-02-23T00:23:34;7.67;83.12
69546;SHT31;56766;52.260;20.746;2024-02-23T00:26:01;7.65;83.39
69546;SHT31;56766;52.260;20.746;2024-02-23T00:28:28;7.63;83.52
69546;SHT31;56766;52.260;20.746;2024-02-23T00:30:55;7.61;83.53
69546;SHT31;56766;52.260;20.746;2024-02-23T00:33:22;7.60;83.45
69546;SHT31;56766;52.260;20.746;2024-02-23T00:35:48;7.59;83.59
69546;SHT31;56766;52.260;20.746;2024-02-23T00:38:15;7.58;83.62
69546;SHT31;56766;52.260;20.746;2024-02-23T00:40:42;7.58;83.50
69546;SHT31;56766;52.260;20.746;2024-02-23T00:43:08;7.60;83.47
69546;SHT31;56766;52.260;20.746;2024-02-23T00:45:35;7.60;83.49
69546;SHT31;56766;52.260;20.746;2024-02-23T00:48:02;7.60;83.50
69546;SHT31;56766;52.260;20.746;2024-02-23T00:50:28;7.59;83.56
69546;SHT31;56766;52.260;20.746;2024-02-23T00:52:55;7.59;83.54
69546;SHT31;56766;52.260;20.746;2024-02-23T00:55:22;7.61;83.37
69546;SHT31;56766;52.260;20.746;2024-02-23T00:57:51;7.63;83.34
69546;SHT31;56766;52.260;20.746;2024-02-23T01:00:18;7.63;83.36
69546;SHT31;56766;52.260;20.746;2024-02-23T01:02:45;7.65;83.24
69546;SHT31;56766;52.260;20.746;2024-02-23T01:05:11;7.67;83.20
69546;SHT31;56766;52.260;20.746;2024-02-23T01:07:38;7.67;83.24
69546;SHT31;56766;52.260;20.746;2024-02-23T01:10:05;7.67;83.26
69546;SHT31;56766;52.260;20.746;2024-02-23T01:12:32;7.68;83.24
69546;SHT31;56766;52.260;20.746;2024-02-23T01:14:59;7.68;83.13
69546;SHT31;56766;52.260;20.746;2024-02-23T01:17:26;7.70;82.93
69546;SHT31;56766;52.260;20.746;2024-02-23T01:19:52;7.72;83.03
69546;SHT31;56766;52.260;20.746;2024-02-23T01:22:19;7.71;83.19
69546;SHT31;56766;52.260;20.746;2024-02-23T01:24:45;7.69;83.18
69546;SHT31;56766;52.260;20.746;2024-02-23T01:27:12;7.69;83.11
69546;SHT31;56766;52.260;20.746;2024-02-23T01:29:39;7.71;83.22
69546;SHT31;56766;52.260;20.746;2024-02-23T01:32:05;7.70;83.27
69546;SHT31;56766;52.260;20.746;2024-02-23T01:34:32;7.72;83.18
69546;SHT31;56766;52.260;20.746;2024-02-23T01:37:00;7.74;83.18
69546;SHT31;56766;52.260;20.746;2024-02-23T01:39:26;7.78;83.00
69546;SHT31;56766;52.260;20.746;2024-02-23T01:41:53;7.80;83.10
69546;SHT31;56766;52.260;20.746;2024-02-23T01:44:21;7.81;83.24
69546;SHT31;56766;52.260;20.746;2024-02-23T01:46:50;7.81;83.33
69546;SHT31;56766;52.260;20.746;2024-02-23T01:49:17;7.81;83.35
69546;SHT31;56766;52.260;20.746;2024-02-23T01:51:44;7.81;83.49
69546;SHT31;56766;52.260;20.746;2024-02-23T01:54:11;7.81;83.60
69546;SHT31;56766;52.260;20.746;2024-02-23T01:56:38;7.80;83.59
69546;SHT31;56766;52.260;20.746;2024-02-23T01:59:10;7.80;83.54
69546;SHT31;56766;52.260;20.746;2024-02-23T02:01:42;7.81;83.38
69546;SHT31;56766;52.260;20.746;2024-02-23T02:04:10;7.84;83.32
69546;SHT31;56766;52.260;20.746;2024-02-23T02:06:37;7.84;83.27
69546;SHT31;56766;52.260;20.746;2024-02-23T02:09:05;7.82;83.29
69546;SHT31;56766;52.260;20.746;2024-02-23T02:11:31;7.82;83.34
69546;SHT31;56766;52.260;20.746;2024-02-23T02:13:58;7.82;83.34
69546;SHT31;56766;52.260;20.746;2024-02-23T02:16:25;7.82;83.39
69546;SHT31;56766;52.260;20.746;2024-02-23T02:18:51;7.82;83.42
69546;SHT31;56766;52.260;20.746;2024-02-23T02:21:18;7.80;83.52
69546;SHT31;56766;52.260;20.746;2024-02-23T02:23:50;7.80;83.56
69546;SHT31;56766;52.260;20.746;2024-02-23T02:26:16;7.79;83.55
69546;SHT31;56766;52.260;20.746;2024-02-23T02:28:43;7.78;83.59
69546;SHT31;56766;52.260;20.746;2024-02-23T02:31:09;7.78;83.54
69546;SHT31;56766;52.260;20.746;2024-02-23T02:33:36;7.79;83.60
69546;SHT31;56766;52.260;20.746;2024-02-23T02:36:03;7.78;83.68
69546;SHT31;56766;52.260;20.746;2024-02-23T02:38:30;7.78;83.67
69546;SHT31;56766;52.260;20.746;2024-02-23T02:40:57;7.78;83.66
69546;SHT31;56766;52.260;20.746;2024-02-23T02:43:26;7.78;83.78
69546;SHT31;56766;52.260;20.746;2024-02-23T02:45:54;7.78;83.81
69546;SHT31;56766;52.260;20.746;2024-02-23T02:48:20;7.78;83.94
69546;SHT31;56766;52.260;20.746;2024-02-23T02:50:47;7.78;84.04
69546;SHT31;56766;52.260;20.746;2024-02-23T02:53:14;7.77;84.10
69546;SHT31;56766;52.260;20.746;2024-02-23T02:55:42;7.78;84.14
69546;SHT31;56766;52.260;20.746;2024-02-23T02:58:11;7.78;84.31
69546;SHT31;56766;52.260;20.746;2024-02-23T03:00:39;7.78;84.46
69546;SHT31;56766;52.260;20.746;2024-02-23T03:03:06;7.76;84.70
69546;SHT31;56766;52.260;20.746;2024-02-23T03:05:33;7.75;84.89
69546;SHT31;56766;52.260;20.746;2024-02-23T03:08:00;7.74;85.06
69546;SHT31;56766;52.260;20.746;2024-02-23T03:10:26;7.72;85.24
69546;SHT31;56766;52.260;20.746;2024-02-23T03:12:53;7.70;85.45
69546;SHT31;56766;52.260;20.746;2024-02-23T03:15:20;7.69;85.65
69546;SHT31;56766;52.260;20.746;2024-02-23T03:17:47;7.65;85.86
69546;SHT31;56766;52.260;20.746;2024-02-23T03:20:15;7.64;86.03
69546;SHT31;56766;52.260;20.746;2024-02-23T03:22:42;7.63;86.22
69546;SHT31;56766;52.260;20.746;2024-02-23T03:25:09;7.63;86.41
69546;SHT31;56766;52.260;20.746;2024-02-23T03:27:37;7.63;86.59
69546;SHT31;56766;52.260;20.746;2024-02-23T03:30:05;7.62;86.76
69546;SHT31;56766;52.260;20.746;2024-02-23T03:32:34;7.60;86.92
69546;SHT31;56766;52.260;20.746;2024-02-23T03:35:06;7.59;87.03
69546;SHT31;56766;52.260;20.746;2024-02-23T03:37:34;7.58;87.16
69546;SHT31;56766;52.260;20.746;2024-02-23T03:40:01;7.59;87.28
69546;SHT31;56766;52.260;20.746;2024-02-23T03:42:28;7.57;87.36
69546;SHT31;56766;52.260;20.746;2024-02-23T03:44:55;7.56;87.50
69546;SHT31;56766;52.260;20.746;2024-02-23T03:47:22;7.56;87.66
69546;SHT31;56766;52.260;20.746;2024-02-23T03:49:48;7.55;87.79
69546;SHT31;56766;52.260;20.746;2024-02-23T03:52:15;7.54;87.89
69546;SHT31;56766;52.260;20.746;2024-02-23T03:54:42;7.53;88.00
69546;SHT31;56766;52.260;20.746;2024-02-23T03:57:09;7.53;88.12
69546;SHT31;56766;52.260;20.746;2024-02-23T03:59:36;7.50;88.28
69546;SHT31;56766;52.260;20.746;2024-02-23T04:02:04;7.49;88.44
69546;SHT31;56766;52.260;20.746;2024-02-23T04:04:31;7.48;88.50
69546;SHT31;56766;52.260;20.746;2024-02-23T04:06:57;7.47;88.56
69546;SHT31;56766;52.260;20.746;2024-02-23T04:09:24;7.47;88.68
69546;SHT31;56766;52.260;20.746;2024-02-23T04:11:51;7.46;88.77
69546;SHT31;56766;52.260;20.746;2024-02-23T04:14:18;7.46;88.90
69546;SHT31;56766;52.260;20.746;2024-02-23T04:16:44;7.45;89.00
69546;SHT31;56766;52.260;20.746;2024-02-23T04:19:11;7.44;89.08
69546;SHT31;56766;52.260;20.746;2024-02-23T04:21:38;7.44;89.16
69546;SHT31;56766;52.260;20.746;2024-02-23T04:24:05;7.44;89.23
69546;SHT31;56766;52.260;20.746;2024-02-23T04:26:33;7.45;89.29
69546;SHT31;56766;52.260;20.746;2024-02-23T04:29:00;7.44;89.37
69546;SHT31;56766;52.260;20.746;2024-02-23T04:31:27;7.43;89.48
69546;SHT31;56766;52.260;20.746;2024-02-23T04:33:53;7.44;89.49
69546;SHT31;56766;52.260;20.746;2024-02-23T04:36:20;7.43;89.51
69546;SHT31;56766;52.260;20.746;2024-02-23T04:38:48;7.45;89.57
69546;SHT31;56766;52.260;20.746;2024-02-23T04:41:19;7.44;89.66
69546;SHT31;56766;52.260;20.746;2024-02-23T04:43:49;7.45;89.70
69546;SHT31;56766;52.260;20.746;2024-02-23T04:46:15;7.44;89.73
69546;SHT31;56766;52.260;20.746;2024-02-23T04:48:44;7.45;89.80
69546;SHT31;56766;52.260;20.746;2024-02-23T04:51:10;7.45;89.89
69546;SHT31;56766;52.260;20.746;2024-02-23T04:53:37;7.46;89.91
69546;SHT31;56766;52.260;20.746;2024-02-23T04:56:05;7.46;89.98
69546;SHT31;56766;52.260;20.746;2024-02-23T04:58:32;7.46;90.10
69546;SHT31;56766;52.260;20.746;2024-02-23T05:01:00;7.47;90.10
69546;SHT31;56766;52.260;20.746;2024-02-23T05:03:27;7.49;90.16
69546;SHT31;56766;52.260;20.746;2024-02-23T05:05:53;7.49;90.20
69546;SHT31;56766;52.260;20.746;2024-02-23T05:08:21;7.51;90.21
69546;SHT31;56766;52.260;20.746;2024-02-23T05:10:47;7.52;90.30
69546;SHT31;56766;52.260;20.746;2024-02-23T05:13:15;7.53;90.32
69546;SHT31;56766;52.260;20.746;2024-02-23T05:15:42;7.53;90.39
69546;SHT31;56766;52.260;20.746;2024-02-23T05:18:08;7.53;90.43
69546;SHT31;56766;52.260;20.746;2024-02-23T05:20:35;7.55;90.49
69546;SHT31;56766;52.260;20.746;2024-02-23T05:23:02;7.56;90.56
69546;SHT31;56766;52.260;20.746;2024-02-23T05:25:29;7.56;90.61
69546;SHT31;56766;52.260;20.746;2024-02-23T05:27:56;7.57;90.69
69546;SHT31;56766;52.260;20.746;2024-02-23T05:30:24;7.58;90.76
69546;SHT31;56766;52.260;20.746;2024-02-23T05:32:53;7.59;90.80
69546;SHT31;56766;52.260;20.746;2024-02-23T05:35:20;7.61;90.84
69546;SHT31;56766;52.260;20.746;2024-02-23T05:37:48;7.62;90.88
69546;SHT31;56766;52.260;20.746;2024-02-23T05:40:16;7.62;90.90
69546;SHT31;56766;52.260;20.746;2024-02-23T05:42:43;7.63;90.93
69546;SHT31;56766;52.260;20.746;2024-02-23T05:45:10;7.66;91.00
69546;SHT31;56766;52.260;20.746;2024-02-23T05:47:39;7.68;91.00
69546;SHT31;56766;52.260;20.746;2024-02-23T05:50:08;7.68;91.01
69546;SHT31;56766;52.260;20.746;2024-02-23T05:52:36;7.70;91.06
69546;SHT31;56766;52.260;20.746;2024-02-23T05:55:03;7.71;91.12
69546;SHT31;56766;52.260;20.746;2024-02-23T05:57:30;7.72;91.20
69546;SHT31;56766;52.260;20.746;2024-02-23T05:59:57;7.74;91.20
69546;SHT31;56766;52.260;20.746;2024-02-23T06:02:25;7.74;91.23
69546;SHT31;56766;52.260;20.746;2024-02-23T06:04:51;7.76;91.30
69546;SHT31;56766;52.260;20.746;2024-02-23T06:07:18;7.76;91.30
69546;SHT31;56766;52.260;20.746;2024-02-23T06:09:47;7.77;91.30
69546;SHT31;56766;52.260;20.746;2024-02-23T06:12:13;7.78;91.40
69546;SHT31;56766;52.260;20.746;2024-02-23T06:14:40;7.79;91.43
69546;SHT31;56766;52.260;20.746;2024-02-23T06:17:07;7.82;91.48
69546;SHT31;56766;52.260;20.746;2024-02-23T06:19:35;7.83;91.50
69546;SHT31;56766;52.260;20.746;2024-02-23T06:22:02;7.85;91.50
69546;SHT31;56766;52.260;20.746;2024-02-23T06:24:29;7.86;91.50
69546;SHT31;56766;52.260;20.746;2024-02-23T06:26:57;7.88;91.50
69546;SHT31;56766;52.260;20.746;2024-02-23T06:29:25;7.89;91.55
69546;SHT31;56766;52.260;20.746;2024-02-23T06:31:52;7.91;91.60
69546;SHT31;56766;52.260;20.746;2024-02-23T06:34:19;7.91;91.60
69546;SHT31;56766;52.260;20.746;2024-02-23T06:36:45;7.93;91.60
69546;SHT31;56766;52.260;20.746;2024-02-23T06:39:12;7.96;91.61
69546;SHT31;56766;52.260;20.746;2024-02-23T06:41:39;7.99;91.65
69546;SHT31;56766;52.260;20.746;2024-02-23T06:44:06;8.00;91.65
69546;SHT31;56766;52.260;20.746;2024-02-23T06:46:33;8.03;91.69
69546;SHT31;56766;52.260;20.746;2024-02-23T06:48:59;8.04;91.70
69546;SHT31;56766;52.260;20.746;2024-02-23T06:51:26;8.07;91.70
69546;SHT31;56766;52.260;20.746;2024-02-23T06:53:54;8.09;91.70
69546;SHT31;56766;52.260;20.746;2024-02-23T06:56:23;8.12;91.71
69546;SHT31;56766;52.260;20.746;2024-02-23T06:58:50;8.12;91.71
69546;SHT31;56766;52.260;20.746;2024-02-23T07:01:16;8.13;91.70
69546;SHT31;56766;52.260;20.746;2024-02-23T07:03:43;8.14;91.73
69546;SHT31;56766;52.260;20.746;2024-02-23T07:06:11;8.15;91.72
69546;SHT31;56766;52.260;20.746;2024-02-23T07:08:38;8.17;91.80
69546;SHT31;56766;52.260;20.746;2024-02-23T07:11:05;8.19;91.80
69546;SHT31;56766;52.260;20.746;2024-02-23T07:13:32;8.22;91.79
69546;SHT31;56766;52.260;20.746;2024-02-23T07:16:00;8.24;91.79
69546;SHT31;56766;52.260;20.746;2024-02-23T07:18:27;8.27;91.79
69546;SHT31;56766;52.260;20.746;2024-02-23T07:20:53;8.29;91.80
69546;SHT31;56766;52.260;20.746;2024-02-23T07:23:20;8.31;91.79
69546;SHT31;56766;52.260;20.746;2024-02-23T07:25:49;8.34;91.78
69546;SHT31;56766;52.260;20.746;2024-02-23T07:28:17;8.36;91.74
69546;SHT31;56766;52.260;20.746;2024-02-23T07:30:49;8.36;91.73
69546;SHT31;56766;52.260;20.746;2024-02-23T07:33:16;8.38;91.79
69546;SHT31;56766;52.260;20.746;2024-02-23T07:35:43;8.39;91.76
69546;SHT31;56766;52.260;20.746;2024-02-23T07:38:10;8.41;91.79
69546;SHT31;56766;52.260;20.746;2024-02-23T07:40:36;8.43;91.80
69546;SHT31;56766;52.260;20.746;2024-02-23T07:43:04;8.46;91.80
69546;SHT31;56766;52.260;20.746;2024-02-23T07:45:31;8.46;91.80
69546;SHT31;56766;52.260;20.746;2024-02-23T07:47:59;8.49;91.80
69546;SHT31;56766;52.260;20.746;2024-02-23T07:50:26;8.53;91.80
69546;SHT31;56766;52.260;20.746;2024-02-23T07:52:53;8.54;91.81
69546;SHT31;56766;52.260;20.746;2024-02-23T07:55:20;8.56;91.82
69546;SHT31;56766;52.260;20.746;2024-02-23T07:57:47;8.58;91.80
69546;SHT31;56766;52.260;20.746;2024-02-23T08:00:14;8.61;91.80
69546;SHT31;56766;52.260;20.746;2024-02-23T08:02:41;8.62;91.80
69546;SHT31;56766;52.260;20.746;2024-02-23T08:05:08;8.64;91.80
69546;SHT31;56766;52.260;20.746;2024-02-23T08:07:37;8.66;91.80
69546;SHT31;56766;52.260;20.746;2024-02-23T08:10:04;8.68;91.80
69546;SHT31;56766;52.260;20.746;2024-02-23T08:12:31;8.71;91.80
69546;SHT31;56766;52.260;20.746;2024-02-23T08:14:58;8.75;91.80
69546;SHT31;56766;52.260;20.746;2024-02-23T08:17:25;8.80;91.80
69546;SHT31;56766;52.260;20.746;2024-02-23T08:19:52;8.84;91.80
69546;SHT31;56766;52.260;20.746;2024-02-23T08:22:20;8.92;91.80
69546;SHT31;56766;52.260;20.746;2024-02-23T08:24:46;8.97;91.80
69546;SHT31;56766;52.260;20.746;2024-02-23T08:27:13;9.04;91.79
69546;SHT31;56766;52.260;20.746;2024-02-23T08:29:39;9.09;91.77
69546;SHT31;56766;52.260;20.746;2024-02-23T08:32:07;9.14;91.74
69546;SHT31;56766;52.260;20.746;2024-02-23T08:34:34;9.20;91.70
69546;SHT31;56766;52.260;20.746;2024-02-23T08:37:01;9.24;91.70
69546;SHT31;56766;52.260;20.746;2024-02-23T08:39:28;9.30;91.67
69546;SHT31;56766;52.260;20.746;2024-02-23T08:41:55;9.36;91.67
69546;SHT31;56766;52.260;20.746;2024-02-23T08:44:22;9.43;91.64
69546;SHT31;56766;52.260;20.746;2024-02-23T08:46:49;9.51;91.63
69546;SHT31;56766;52.260;20.746;2024-02-23T08:49:16;9.62;91.62
69546;SHT31;56766;52.260;20.746;2024-02-23T08:51:43;9.73;91.51
69546;SHT31;56766;52.260;20.746;2024-02-23T08:54:10;9.82;91.49
69546;SHT31;56766;52.260;20.746;2024-02-23T08:56:37;9.92;91.40
69546;SHT31;56766;52.260;20.746;2024-02-23T08:59:09;10.05;91.32
69546;SHT31;56766;52.260;20.746;2024-02-23T09:01:36;10.18;91.28
69546;SHT31;56766;52.260;20.746;2024-02-23T09:04:04;10.32;91.18
69546;SHT31;56766;52.260;20.746;2024-02-23T09:06:31;10.46;91.16
69546;SHT31;56766;52.260;20.746;2024-02-23T09:08:59;10.59;90.99
69546;SHT31;56766;52.260;20.746;2024-02-23T09:11:26;10.69;90.80
69546;SHT31;56766;52.260;20.746;2024-02-23T09:13:53;10.82;90.69
69546;SHT31;56766;52.260;20.746;2024-02-23T09:16:19;10.91;90.60
69546;SHT31;56766;52.260;20.746;2024-02-23T09:18:49;10.99;90.53
69546;SHT31;56766;52.260;20.746;2024-02-23T09:21:16;11.05;90.34
69546;SHT31;56766;52.260;20.746;2024-02-23T09:23:43;11.07;90.07
69546;SHT31;56766;52.260;20.746;2024-02-23T09:26:10;11.07;89.95
69546;SHT31;56766;52.260;20.746;2024-02-23T09:28:38;11.06;89.96
69546;SHT31;56766;52.260;20.746;2024-02-23T09:31:07;11.05;89.96
69546;SHT31;56766;52.260;20.746;2024-02-23T09:33:34;11.04;89.97
69546;SHT31;56766;52.260;20.746;2024-02-23T09:36:01;11.03;89.90
69546;SHT31;56766;52.260;20.746;2024-02-23T09:38:28;11.00;89.88
69546;SHT31;56766;52.260;20.746;2024-02-23T09:40:56;10.99;89.90
69546;SHT31;56766;52.260;20.746;2024-02-23T09:43:28;10.96;89.85
69546;SHT31;56766;52.260;20.746;2024-02-23T09:45:56;10.89;89.79
69546;SHT31;56766;52.260;20.746;2024-02-23T09:48:25;10.84;89.80
69546;SHT31;56766;52.260;20.746;2024-02-23T09:50:52;10.81;89.80
69546;SHT31;56766;52.260;20.746;2024-02-23T09:53:21;10.82;89.88
69546;SHT31;56766;52.260;20.746;2024-02-23T09:55:50;10.86;89.97
69546;SHT31;56766;52.260;20.746;2024-02-23T09:58:19;10.93;89.86
69546;SHT31;56766;52.260;20.746;2024-02-23T10:00:48;11.04;89.86
69546;SHT31;56766;52.260;20.746;2024-02-23T10:03:16;11.14;89.80
69546;SHT31;56766;52.260;20.746;2024-02-23T10:05:43;11.22;89.88
69546;SHT31;56766;52.260;20.746;2024-02-23T10:08:11;11.34;89.89
69546;SHT31;56766;52.260;20.746;2024-02-23T10:10:39;11.42;89.72
69546;SHT31;56766;52.260;20.746;2024-02-23T10:13:05;11.45;89.60
69546;SHT31;56766;52.260;20.746;2024-02-23T10:15:32;11.42;89.39
69546;SHT31;56766;52.260;20.746;2024-02-23T10:17:59;11.39;89.47
69546;SHT31;56766;52.260;20.746;2024-02-23T10:20:26;11.40;89.41
69546;SHT31;56766;52.260;20.746;2024-02-23T10:22:53;11.39;89.26
69546;SHT31;56766;52.260;20.746;2024-02-23T10:25:21;11.38;89.37
69546;SHT31;56766;52.260;20.746;2024-02-23T10:27:48;11.38;89.33
69546;SHT31;56766;52.260;20.746;2024-02-23T10:30:15;11.37;89.31
69546;SHT31;56766;52.260;20.746;2024-02-23T10:32:42;11.33;89.15
69546;SHT31;56766;52.260;20.746;2024-02-23T10:35:13;11.28;89.14
69546;SHT31;56766;52.260;20.746;2024-02-23T10:37:43;11.26;89.20
69546;SHT31;56766;52.260;20.746;2024-02-23T10:40:12;11.23;89.23
69546;SHT31;56766;52.260;20.746;2024-02-23T10:42:44;11.17;89.21
69546;SHT31;56766;52.260;20.746;2024-02-23T10:45:18;11.12;89.24
69546;SHT31;56766;52.260;20.746;2024-02-23T10:47:48;11.06;89.17
69546;SHT31;56766;52.260;20.746;2024-02-23T10:50:18;11.03;89.29
69546;SHT31;56766;52.260;20.746;2024-02-23T10:52:46;11.01;89.38
69546;SHT31;56766;52.260;20.746;2024-02-23T10:55:14;10.99;89.31
69546;SHT31;56766;52.260;20.746;2024-02-23T10:57:43;10.97;89.45
69546;SHT31;56766;52.260;20.746;2024-02-23T11:00:12;10.98;89.49
69546;SHT31;56766;52.260;20.746;2024-02-23T11:02:46;10.97;89.49
69546;SHT31;56766;52.260;20.746;2024-02-23T11:05:19;10.97;89.51
69546;SHT31;56766;52.260;20.746;2024-02-23T11:07:49;11.00;89.59
69546;SHT31;56766;52.260;20.746;2024-02-23T11:10:19;11.01;89.60
69546;SHT31;56766;52.260;20.746;2024-02-23T11:12:58;11.05;89.70
69546;SHT31;56766;52.260;20.746;2024-02-23T11:15:28;11.08;89.69
69546;SHT31;56766;52.260;20.746;2024-02-23T11:17:57;11.09;89.68
69546;SHT31;56766;52.260;20.746;2024-02-23T11:20:41;11.10;89.66
69546;SHT31;56766;52.260;20.746;2024-02-23T11:23:14;11.09;89.60
69546;SHT31;56766;52.260;20.746;2024-02-23T11:25:42;11.09;89.56
69546;SHT31;56766;52.260;20.746;2024-02-23T11:28:28;11.08;89.53
69546;SHT31;56766;52.260;20.746;2024-02-23T11:35:13;11.13;89.66
69546;SHT31;56766;52.260;20.746;2024-02-23T11:38:03;11.15;89.67
69546;SHT31;56766;52.260;20.746;2024-02-23T11:40:48;11.24;89.79
69546;SHT31;56766;52.260;20.746;2024-02-23T11:43:16;11.28;89.67
69546;SHT31;56766;52.260;20.746;2024-02-23T11:45:54;11.30;89.64
69546;SHT31;56766;52.260;20.746;2024-02-23T11:48:48;11.33;89.63
69546;SHT31;56766;52.260;20.746;2024-02-23T11:51:23;11.33;89.56
69546;SHT31;56766;52.260;20.746;2024-02-23T11:54:07;11.39;89.70
69546;SHT31;56766;52.260;20.746;2024-02-23T11:56:40;11.43;89.71
69546;SHT31;56766;52.260;20.746;2024-02-23T11:59:08;11.48;89.68
69546;SHT31;56766;52.260;20.746;2024-02-23T12:01:36;11.52;89.63
69546;SHT31;56766;52.260;20.746;2024-02-23T12:04:03;11.54;89.60
69546;SHT31;56766;52.260;20.746;2024-02-23T12:09:17;11.53;89.55
69546;SHT31;56766;52.260;20.746;2024-02-23T12:11:47;11.57;89.63
69546;SHT31;56766;52.260;20.746;2024-02-23T12:14:15;11.60;89.60
69546;SHT31;56766;52.260;20.746;2024-02-23T12:16:45;11.63;89.62
69546;SHT31;56766;52.260;20.746;2024-02-23T12:19:14;11.66;89.59
69546;SHT31;56766;52.260;20.746;2024-02-23T12:24:29;11.64;89.45
69546;SHT31;56766;52.260;20.746;2024-02-23T12:26:56;11.63;89.45
69546;SHT31;56766;52.260;20.746;2024-02-23T12:29:24;11.63;89.44
69546;SHT31;56766;52.260;20.746;2024-02-23T12:32:10;11.61;89.39
69546;SHT31;56766;52.260;20.746;2024-02-23T12:34:44;11.61;89.41
69546;SHT31;56766;52.260;20.746;2024-02-23T12:37:14;11.60;89.43
69546;SHT31;56766;52.260;20.746;2024-02-23T12:39:44;11.60;89.46
69546;SHT31;56766;52.260;20.746;2024-02-23T12:42:11;11.57;89.48
69546;SHT31;56766;52.260;20.746;2024-02-23T12:44:44;11.53;89.42
69546;SHT31;56766;52.260;20.746;2024-02-23T12:47:24;11.49;89.46
69546;SHT31;56766;52.260;20.746;2024-02-23T12:49:52;11.49;89.53
69546;SHT31;56766;52.260;20.746;2024-02-23T12:52:20;11.49;89.54
69546;SHT31;56766;52.260;20.746;2024-02-23T12:54:50;11.44;89.51
69546;SHT31;56766;52.260;20.746;2024-02-23T12:57:17;11.38;89.58
69546;SHT31;56766;52.260;20.746;2024-02-23T12:59:44;11.36;89.61
69546;SHT31;56766;52.260;20.746;2024-02-23T13:02:11;11.36;89.62
69546;SHT31;56766;52.260;20.746;2024-02-23T13:04:38;11.36;89.66
69546;SHT31;56766;52.260;20.746;2024-02-23T13:07:05;11.35;89.71
69546;SHT31;56766;52.260;20.746;2024-02-23T13:09:32;11.37;89.77
69546;SHT31;56766;52.260;20.746;2024-02-23T13:11:58;11.39;89.77
69546;SHT31;56766;52.260;20.746;2024-02-23T13:14:25;11.37;89.70
69546;SHT31;56766;52.260;20.746;2024-02-23T13:16:52;11.38;89.76
69546;SHT31;56766;52.260;20.746;2024-02-23T13:19:18;11.44;89.87
69546;SHT31;56766;52.260;20.746;2024-02-23T13:21:45;11.50;89.88
69546;SHT31;56766;52.260;20.746;2024-02-23T13:24:12;11.48;89.84
69546;SHT31;56766;52.260;20.746;2024-02-23T13:26:38;11.45;89.81
69546;SHT31;56766;52.260;20.746;2024-02-23T13:29:06;11.38;89.67
69546;SHT31;56766;52.260;20.746;2024-02-23T13:31:33;11.31;89.74
69546;SHT31;56766;52.260;20.746;2024-02-23T13:33:59;11.26;89.80
69546;SHT31;56766;52.260;20.746;2024-02-23T13:36:26;11.20;89.81
69546;SHT31;56766;52.260;20.746;2024-02-23T13:38:53;11.14;89.88
69546;SHT31;56766;52.260;20.746;2024-02-23T13:41:20;11.07;89.92
69546;SHT31;56766;52.260;20.746;2024-02-23T13:43:47;11.04;89.98
69546;SHT31;56766;52.260;20.746;2024-02-23T13:46:13;11.05;90.02
69546;SHT31;56766;52.260;20.746;2024-02-23T13:48:40;11.06;90.10
69546;SHT31;56766;52.260;20.746;2024-02-23T13:51:07;11.06;90.10
69546;SHT31;56766;52.260;20.746;2024-02-23T13:53:34;11.04;90.11
69546;SHT31;56766;52.260;20.746;2024-02-23T13:56:03;11.02;90.09
69546;SHT31;56766;52.260;20.746;2024-02-23T13:58:30;10.97;90.09
69546;SHT31;56766;52.260;20.746;2024-02-23T14:00:57;10.93;90.10
69546;SHT31;56766;52.260;20.746;2024-02-23T14:03:23;10.89;90.11
69546;SHT31;56766;52.260;20.746;2024-02-23T14:05:50;10.87;90.20
69546;SHT31;56766;52.260;20.746;2024-02-23T14:08:18;10.86;90.28
69546;SHT31;56766;52.260;20.746;2024-02-23T14:10:44;10.87;90.30
69546;SHT31;56766;52.260;20.746;2024-02-23T14:13:11;10.86;90.38
69546;SHT31;56766;52.260;20.746;2024-02-23T14:15:39;10.85;90.40
69546;SHT31;56766;52.260;20.746;2024-02-23T14:18:05;10.85;90.43
69546;SHT31;56766;52.260;20.746;2024-02-23T14:20:32;10.85;90.42
69546;SHT31;56766;52.260;20.746;2024-02-23T14:22:59;10.84;90.40
69546;SHT31;56766;52.260;20.746;2024-02-23T14:25:25;10.84;90.50
69546;SHT31;56766;52.260;20.746;2024-02-23T14:27:52;10.84;90.50
69546;SHT31;56766;52.260;20.746;2024-02-23T14:30:19;10.84;90.50
69546;SHT31;56766;52.260;20.746;2024-02-23T14:32:46;10.84;90.48
69546;SHT31;56766;52.260;20.746;2024-02-23T14:35:16;10.82;90.41
69546;SHT31;56766;52.260;20.746;2024-02-23T14:37:43;10.75;90.37
69546;SHT31;56766;52.260;20.746;2024-02-23T14:40:11;10.72;90.43
69546;SHT31;56766;52.260;20.746;2024-02-23T14:42:38;10.69;90.49
69546;SHT31;56766;52.260;20.746;2024-02-23T14:45:07;10.68;90.54
69546;SHT31;56766;52.260;20.746;2024-02-23T14:47:34;10.68;90.64
69546;SHT31;56766;52.260;20.746;2024-02-23T14:50:01;10.68;90.69
69546;SHT31;56766;52.260;20.746;2024-02-23T14:52:28;10.68;90.73
69546;SHT31;56766;52.260;20.746;2024-02-23T14:54:55;10.70;90.79
69546;SHT31;56766;52.260;20.746;2024-02-23T14:57:22;10.73;90.80
69546;SHT31;56766;52.260;20.746;2024-02-23T14:59:48;10.73;90.80
69546;SHT31;56766;52.260;20.746;2024-02-23T15:02:22;10.73;90.80
69546;SHT31;56766;52.260;20.746;2024-02-23T15:04:49;10.70;90.77
69546;SHT31;56766;52.260;20.746;2024-02-23T15:07:16;10.68;90.80
69546;SHT31;56766;52.260;20.746;2024-02-23T15:09:42;10.66;90.80
69546;SHT31;56766;52.260;20.746;2024-02-23T15:12:10;10.61;90.78
69546;SHT31;56766;52.260;20.746;2024-02-23T15:14:38;10.58;90.81
69546;SHT31;56766;52.260;20.746;2024-02-23T15:17:05;10.53;90.87
69546;SHT31;56766;52.260;20.746;2024-02-23T15:19:31;10.50;90.90
69546;SHT31;56766;52.260;20.746;2024-02-23T15:21:58;10.45;90.94
69546;SHT31;56766;52.260;20.746;2024-02-23T15:24:25;10.41;90.99
69546;SHT31;56766;52.260;20.746;2024-02-23T15:26:52;10.36;90.94
69546;SHT31;56766;52.260;20.746;2024-02-23T15:29:19;10.31;91.02
69546;SHT31;56766;52.260;20.746;2024-02-23T15:31:45;10.28;91.09
69546;SHT31;56766;52.260;20.746;2024-02-23T15:34:12;10.28;91.17
69546;SHT31;56766;52.260;20.746;2024-02-23T15:36:39;10.25;91.20
69546;SHT31;56766;52.260;20.746;2024-02-23T15:39:05;10.21;91.20